sensor_id;sensor_type;location;lat;lon;timestamp;P1;durP1;ratioP1;P2;durP2;ratioP2
74577;SDS011;75151;49.086;33.418;2024-03-02T00:00:50;51.05;;;19.85;;
74577;SDS011;75151;49.086;33.418;2024-03-02T00:03:18;42.60;;;19.08;;
74577;SDS011;75151;49.086;33.418;2024-03-02T00:05:49;42.72;;;17.30;;
74577;SDS011;75151;49.086;33.418;2024-03-02T00:08:24;46.22;;;18.58;;
74577;SDS011;75151;49.086;33.418;2024-03-02T00:10:52;38.28;;;16.38;;
74577;SDS011;75151;49.086;33.418;2024-03-02T00:13:24;42.38;;;17.15;;
74577;SDS011;75151;49.086;33.418;2024-03-02T00:15:54;42.10;;;14.88;;
74577;SDS011;75151;49.086;33.418;2024-03-02T00:18:32;42.08;;;17.63;;
74577;SDS011;75151;49.086;33.418;2024-03-02T00:21:01;38.05;;;16.35;;
74577;SDS011;75151;49.086;33.418;2024-03-02T00:23:30;44.92;;;17.83;;
74577;SDS011;75151;49.086;33.418;2024-03-02T00:25:58;36.20;;;15.55;;
74577;SDS011;75151;49.086;33.418;2024-03-02T00:28:30;44.58;;;17.38;;
74577;SDS011;75151;49.086;33.418;2024-03-02T00:31:08;40.38;;;15.90;;
74577;SDS011;75151;49.086;33.418;2024-03-02T00:33:45;38.65;;;15.57;;
74577;SDS011;75151;49.086;33.418;2024-03-02T00:36:20;47.05;;;15.63;;
74577;SDS011;75151;49.086;33.418;2024-03-02T00:38:51;41.83;;;17.05;;
74577;SDS011;75151;49.086;33.418;2024-03-02T00:41:30;45.58;;;16.55;;
74577;SDS011;75151;49.086;33.418;2024-03-02T00:46:24;41.97;;;17.50;;
74577;SDS011;75151;49.086;33.418;2024-03-02T00:48:55;45.58;;;19.20;;
74577;SDS011;75151;49.086;33.418;2024-03-02T00:51:25;49.75;;;18.40;;
74577;SDS011;75151;49.086;33.418;2024-03-02T00:56:23;40.38;;;16.88;;
74577;SDS011;75151;49.086;33.418;2024-03-02T00:58:51;38.85;;;16.42;;
74577;SDS011;75151;49.086;33.418;2024-03-02T01:01:19;39.70;;;15.48;;
74577;SDS011;75151;49.086;33.418;2024-03-02T01:03:49;40.97;;;16.27;;
74577;SDS011;75151;49.086;33.418;2024-03-02T01:06:16;38.33;;;15.13;;
74577;SDS011;75151;49.086;33.418;2024-03-02T01:08:43;36.92;;;14.32;;
74577;SDS011;75151;49.086;33.418;2024-03-02T01:11:10;36.80;;;14.05;;
74577;SDS011;75151;49.086;33.418;2024-03-02T01:13:37;39.65;;;14.48;;
74577;SDS011;75151;49.086;33.418;2024-03-02T01:16:04;35.92;;;14.20;;
74577;SDS011;75151;49.086;33.418;2024-03-02T01:18:31;40.90;;;14.82;;
74577;SDS011;75151;49.086;33.418;2024-03-02T01:20:58;34.90;;;13.93;;
74577;SDS011;75151;49.086;33.418;2024-03-02T01:23:25;37.20;;;14.15;;
74577;SDS011;75151;49.086;33.418;2024-03-02T01:25:52;32.45;;;13.05;;
74577;SDS011;75151;49.086;33.418;2024-03-02T01:28:19;33.10;;;13.30;;
74577;SDS011;75151;49.086;33.418;2024-03-02T01:30:47;39.13;;;14.95;;
74577;SDS011;75151;49.086;33.418;2024-03-02T01:33:15;33.22;;;14.13;;
74577;SDS011;75151;49.086;33.418;2024-03-02T01:35:43;37.55;;;14.05;;
74577;SDS011;75151;49.086;33.418;2024-03-02T01:38:10;35.05;;;13.82;;
74577;SDS011;75151;49.086;33.418;2024-03-02T01:40:37;38.10;;;15.18;;
74577;SDS011;75151;49.086;33.418;2024-03-02T01:43:05;39.28;;;14.70;;
74577;SDS011;75151;49.086;33.418;2024-03-02T01:45:32;37.05;;;15.57;;
74577;SDS011;75151;49.086;33.418;2024-03-02T01:48:00;39.78;;;13.85;;
74577;SDS011;75151;49.086;33.418;2024-03-02T01:50:27;32.28;;;14.48;;
74577;SDS011;75151;49.086;33.418;2024-03-02T01:52:55;36.90;;;15.10;;
74577;SDS011;75151;49.086;33.418;2024-03-02T01:55:23;36.58;;;14.93;;
74577;SDS011;75151;49.086;33.418;2024-03-02T01:57:50;36.83;;;16.40;;
74577;SDS011;75151;49.086;33.418;2024-03-02T02:00:21;34.85;;;15.00;;
74577;SDS011;75151;49.086;33.418;2024-03-02T02:02:48;37.58;;;15.88;;
74577;SDS011;75151;49.086;33.418;2024-03-02T02:05:16;39.00;;;16.60;;
74577;SDS011;75151;49.086;33.418;2024-03-02T02:07:43;40.75;;;17.42;;
74577;SDS011;75151;49.086;33.418;2024-03-02T02:10:10;42.30;;;17.80;;
74577;SDS011;75151;49.086;33.418;2024-03-02T02:12:37;43.25;;;18.60;;
74577;SDS011;75151;49.086;33.418;2024-03-02T02:15:21;43.65;;;18.55;;
74577;SDS011;75151;49.086;33.418;2024-03-02T02:17:52;40.83;;;18.20;;
74577;SDS011;75151;49.086;33.418;2024-03-02T02:20:19;42.92;;;17.70;;
74577;SDS011;75151;49.086;33.418;2024-03-02T02:22:59;52.22;;;20.77;;
74577;SDS011;75151;49.086;33.418;2024-03-02T02:25:30;47.20;;;18.73;;
74577;SDS011;75151;49.086;33.418;2024-03-02T02:27:57;45.72;;;20.20;;
74577;SDS011;75151;49.086;33.418;2024-03-02T02:30:29;44.47;;;18.52;;
74577;SDS011;75151;49.086;33.418;2024-03-02T02:32:57;40.88;;;17.45;;
74577;SDS011;75151;49.086;33.418;2024-03-02T02:35:25;40.03;;;15.27;;
74577;SDS011;75151;49.086;33.418;2024-03-02T02:37:52;33.70;;;15.18;;
74577;SDS011;75151;49.086;33.418;2024-03-02T02:40:21;34.78;;;14.50;;
74577;SDS011;75151;49.086;33.418;2024-03-02T02:42:48;35.80;;;16.10;;
74577;SDS011;75151;49.086;33.418;2024-03-02T02:45:15;38.67;;;15.55;;
74577;SDS011;75151;49.086;33.418;2024-03-02T02:47:42;36.78;;;15.88;;
74577;SDS011;75151;49.086;33.418;2024-03-02T02:50:10;47.90;;;15.43;;
74577;SDS011;75151;49.086;33.418;2024-03-02T02:52:38;35.28;;;16.75;;
74577;SDS011;75151;49.086;33.418;2024-03-02T02:55:08;38.63;;;16.30;;
74577;SDS011;75151;49.086;33.418;2024-03-02T02:57:40;42.55;;;17.83;;
74577;SDS011;75151;49.086;33.418;2024-03-02T03:00:12;35.72;;;14.70;;
74577;SDS011;75151;49.086;33.418;2024-03-02T03:02:44;29.80;;;13.20;;
74577;SDS011;75151;49.086;33.418;2024-03-02T03:05:13;41.70;;;16.52;;
74577;SDS011;75151;49.086;33.418;2024-03-02T03:07:41;37.35;;;15.45;;
74577;SDS011;75151;49.086;33.418;2024-03-02T03:10:08;43.90;;;15.07;;
74577;SDS011;75151;49.086;33.418;2024-03-02T03:12:35;36.28;;;15.05;;
74577;SDS011;75151;49.086;33.418;2024-03-02T03:15:03;37.55;;;15.32;;
74577;SDS011;75151;49.086;33.418;2024-03-02T03:17:35;38.13;;;15.43;;
74577;SDS011;75151;49.086;33.418;2024-03-02T03:20:02;38.30;;;15.63;;
74577;SDS011;75151;49.086;33.418;2024-03-02T03:22:30;40.72;;;14.98;;
74577;SDS011;75151;49.086;33.418;2024-03-02T03:24:58;37.63;;;15.18;;
74577;SDS011;75151;49.086;33.418;2024-03-02T03:27:26;39.30;;;14.45;;
74577;SDS011;75151;49.086;33.418;2024-03-02T03:29:53;32.50;;;14.45;;
74577;SDS011;75151;49.086;33.418;2024-03-02T03:32:21;35.88;;;14.70;;
74577;SDS011;75151;49.086;33.418;2024-03-02T03:34:48;37.58;;;15.57;;
74577;SDS011;75151;49.086;33.418;2024-03-02T03:37:15;44.08;;;15.10;;
74577;SDS011;75151;49.086;33.418;2024-03-02T03:39:42;39.10;;;14.95;;
74577;SDS011;75151;49.086;33.418;2024-03-02T03:42:09;39.72;;;16.45;;
74577;SDS011;75151;49.086;33.418;2024-03-02T03:44:35;42.85;;;15.95;;
74577;SDS011;75151;49.086;33.418;2024-03-02T03:47:02;45.58;;;16.00;;
74577;SDS011;75151;49.086;33.418;2024-03-02T03:49:29;39.40;;;15.55;;
74577;SDS011;75151;49.086;33.418;2024-03-02T03:51:56;36.50;;;13.55;;
74577;SDS011;75151;49.086;33.418;2024-03-02T03:54:23;35.80;;;15.98;;
74577;SDS011;75151;49.086;33.418;2024-03-02T03:56:50;44.28;;;16.13;;
74577;SDS011;75151;49.086;33.418;2024-03-02T03:59:16;41.28;;;15.77;;
74577;SDS011;75151;49.086;33.418;2024-03-02T04:01:43;45.65;;;16.65;;
74577;SDS011;75151;49.086;33.418;2024-03-02T04:04:10;37.97;;;16.08;;
74577;SDS011;75151;49.086;33.418;2024-03-02T04:06:37;44.80;;;17.88;;
74577;SDS011;75151;49.086;33.418;2024-03-02T04:09:04;50.10;;;18.70;;
74577;SDS011;75151;49.086;33.418;2024-03-02T04:11:30;44.22;;;18.15;;
74577;SDS011;75151;49.086;33.418;2024-03-02T04:13:57;41.67;;;15.82;;
74577;SDS011;75151;49.086;33.418;2024-03-02T04:16:24;38.38;;;15.35;;
74577;SDS011;75151;49.086;33.418;2024-03-02T04:18:51;40.28;;;15.88;;
74577;SDS011;75151;49.086;33.418;2024-03-02T04:21:18;38.35;;;16.20;;
74577;SDS011;75151;49.086;33.418;2024-03-02T04:23:45;34.85;;;14.35;;
74577;SDS011;75151;49.086;33.418;2024-03-02T04:26:12;32.03;;;13.00;;
74577;SDS011;75151;49.086;33.418;2024-03-02T04:28:39;36.60;;;14.43;;
74577;SDS011;75151;49.086;33.418;2024-03-02T04:31:06;32.70;;;13.85;;
74577;SDS011;75151;49.086;33.418;2024-03-02T04:33:32;36.92;;;15.60;;
74577;SDS011;75151;49.086;33.418;2024-03-02T04:35:59;37.92;;;15.40;;
74577;SDS011;75151;49.086;33.418;2024-03-02T04:38:26;45.97;;;14.60;;
74577;SDS011;75151;49.086;33.418;2024-03-02T04:40:53;45.65;;;17.27;;
74577;SDS011;75151;49.086;33.418;2024-03-02T04:43:20;40.88;;;16.75;;
74577;SDS011;75151;49.086;33.418;2024-03-02T04:45:47;36.88;;;15.13;;
74577;SDS011;75151;49.086;33.418;2024-03-02T04:48:14;35.08;;;13.68;;
74577;SDS011;75151;49.086;33.418;2024-03-02T04:50:41;40.65;;;14.32;;
74577;SDS011;75151;49.086;33.418;2024-03-02T04:53:08;37.47;;;13.43;;
74577;SDS011;75151;49.086;33.418;2024-03-02T04:55:35;37.78;;;13.88;;
74577;SDS011;75151;49.086;33.418;2024-03-02T04:58:21;34.95;;;14.25;;
74577;SDS011;75151;49.086;33.418;2024-03-02T05:00:51;31.48;;;13.70;;
74577;SDS011;75151;49.086;33.418;2024-03-02T05:03:18;36.53;;;14.80;;
74577;SDS011;75151;49.086;33.418;2024-03-02T05:05:45;38.30;;;13.40;;
74577;SDS011;75151;49.086;33.418;2024-03-02T05:08:12;42.88;;;14.60;;
74577;SDS011;75151;49.086;33.418;2024-03-02T05:10:39;38.80;;;14.00;;
74577;SDS011;75151;49.086;33.418;2024-03-02T05:13:05;32.13;;;13.43;;
74577;SDS011;75151;49.086;33.418;2024-03-02T05:15:32;29.92;;;12.85;;
74577;SDS011;75151;49.086;33.418;2024-03-02T05:17:59;36.92;;;14.57;;
74577;SDS011;75151;49.086;33.418;2024-03-02T05:20:29;35.30;;;13.88;;
74577;SDS011;75151;49.086;33.418;2024-03-02T05:22:55;38.17;;;16.67;;
74577;SDS011;75151;49.086;33.418;2024-03-02T05:25:22;48.78;;;15.13;;
74577;SDS011;75151;49.086;33.418;2024-03-02T05:27:49;36.58;;;13.50;;
74577;SDS011;75151;49.086;33.418;2024-03-02T05:30:16;45.33;;;15.95;;
74577;SDS011;75151;49.086;33.418;2024-03-02T05:32:43;37.17;;;13.63;;
74577;SDS011;75151;49.086;33.418;2024-03-02T05:35:10;40.50;;;14.50;;
74577;SDS011;75151;49.086;33.418;2024-03-02T05:37:39;38.30;;;14.75;;
74577;SDS011;75151;49.086;33.418;2024-03-02T05:40:06;40.08;;;14.93;;
74577;SDS011;75151;49.086;33.418;2024-03-02T05:42:34;34.22;;;14.30;;
74577;SDS011;75151;49.086;33.418;2024-03-02T05:45:00;32.38;;;13.82;;
74577;SDS011;75151;49.086;33.418;2024-03-02T05:47:27;40.88;;;15.30;;
74577;SDS011;75151;49.086;33.418;2024-03-02T05:49:55;36.60;;;14.93;;
74577;SDS011;75151;49.086;33.418;2024-03-02T05:52:21;39.88;;;15.40;;
74577;SDS011;75151;49.086;33.418;2024-03-02T05:54:48;35.83;;;13.88;;
74577;SDS011;75151;49.086;33.418;2024-03-02T05:57:16;46.10;;;16.58;;
74577;SDS011;75151;49.086;33.418;2024-03-02T06:00:05;37.38;;;13.07;;
74577;SDS011;75151;49.086;33.418;2024-03-02T06:02:34;31.15;;;12.98;;
74577;SDS011;75151;49.086;33.418;2024-03-02T06:05:05;34.17;;;14.02;;
74577;SDS011;75151;49.086;33.418;2024-03-02T06:07:33;35.85;;;13.20;;
74577;SDS011;75151;49.086;33.418;2024-03-02T06:10:00;33.65;;;12.52;;
74577;SDS011;75151;49.086;33.418;2024-03-02T06:12:27;30.92;;;12.38;;
74577;SDS011;75151;49.086;33.418;2024-03-02T06:14:54;34.63;;;13.00;;
74577;SDS011;75151;49.086;33.418;2024-03-02T06:17:20;29.13;;;10.90;;
74577;SDS011;75151;49.086;33.418;2024-03-02T06:19:47;33.28;;;13.05;;
74577;SDS011;75151;49.086;33.418;2024-03-02T06:22:14;37.22;;;12.93;;
74577;SDS011;75151;49.086;33.418;2024-03-02T06:24:41;43.17;;;13.95;;
74577;SDS011;75151;49.086;33.418;2024-03-02T06:27:07;41.10;;;13.95;;
74577;SDS011;75151;49.086;33.418;2024-03-02T06:29:34;35.33;;;12.63;;
74577;SDS011;75151;49.086;33.418;2024-03-02T06:32:01;46.50;;;14.77;;
74577;SDS011;75151;49.086;33.418;2024-03-02T06:34:28;35.88;;;12.75;;
74577;SDS011;75151;49.086;33.418;2024-03-02T06:36:54;31.95;;;12.35;;
74577;SDS011;75151;49.086;33.418;2024-03-02T06:39:22;31.20;;;12.13;;
74577;SDS011;75151;49.086;33.418;2024-03-02T06:41:49;36.83;;;12.23;;
74577;SDS011;75151;49.086;33.418;2024-03-02T06:44:16;35.45;;;11.15;;
74577;SDS011;75151;49.086;33.418;2024-03-02T06:46:42;39.08;;;12.27;;
74577;SDS011;75151;49.086;33.418;2024-03-02T06:49:09;37.25;;;11.52;;
74577;SDS011;75151;49.086;33.418;2024-03-02T06:51:39;32.95;;;11.10;;
74577;SDS011;75151;49.086;33.418;2024-03-02T06:54:06;36.70;;;12.90;;
74577;SDS011;75151;49.086;33.418;2024-03-02T06:56:33;24.77;;;10.00;;
74577;SDS011;75151;49.086;33.418;2024-03-02T06:58:59;28.35;;;10.50;;
74577;SDS011;75151;49.086;33.418;2024-03-02T07:01:26;29.33;;;10.82;;
74577;SDS011;75151;49.086;33.418;2024-03-02T07:03:54;27.83;;;11.00;;
74577;SDS011;75151;49.086;33.418;2024-03-02T07:06:21;29.95;;;10.50;;
74577;SDS011;75151;49.086;33.418;2024-03-02T07:08:48;31.25;;;12.30;;
74577;SDS011;75151;49.086;33.418;2024-03-02T07:11:15;33.25;;;12.65;;
74577;SDS011;75151;49.086;33.418;2024-03-02T07:13:41;35.47;;;12.80;;
74577;SDS011;75151;49.086;33.418;2024-03-02T07:16:08;33.33;;;11.65;;
74577;SDS011;75151;49.086;33.418;2024-03-02T07:18:54;31.13;;;11.50;;
74577;SDS011;75151;49.086;33.418;2024-03-02T07:23:50;33.67;;;10.40;;
74577;SDS011;75151;49.086;33.418;2024-03-02T07:26:17;30.80;;;10.07;;
74577;SDS011;75151;49.086;33.418;2024-03-02T07:28:49;29.05;;;10.30;;
74577;SDS011;75151;49.086;33.418;2024-03-02T07:31:17;28.73;;;11.70;;
74577;SDS011;75151;49.086;33.418;2024-03-02T07:33:44;22.42;;;10.23;;
74577;SDS011;75151;49.086;33.418;2024-03-02T07:36:12;27.02;;;11.43;;
74577;SDS011;75151;49.086;33.418;2024-03-02T07:38:39;32.15;;;11.77;;
74577;SDS011;75151;49.086;33.418;2024-03-02T07:41:07;33.10;;;11.05;;
74577;SDS011;75151;49.086;33.418;2024-03-02T07:43:35;29.13;;;11.43;;
74577;SDS011;75151;49.086;33.418;2024-03-02T07:46:02;50.05;;;17.83;;
74577;SDS011;75151;49.086;33.418;2024-03-02T07:48:29;27.58;;;11.68;;
74577;SDS011;75151;49.086;33.418;2024-03-02T07:50:57;24.55;;;10.38;;
74577;SDS011;75151;49.086;33.418;2024-03-02T07:53:24;33.72;;;10.95;;
74577;SDS011;75151;49.086;33.418;2024-03-02T07:55:51;38.17;;;10.48;;
74577;SDS011;75151;49.086;33.418;2024-03-02T07:58:18;42.30;;;14.70;;
74577;SDS011;75151;49.086;33.418;2024-03-02T08:00:46;34.05;;;11.57;;
74577;SDS011;75151;49.086;33.418;2024-03-02T08:03:14;29.27;;;10.60;;
74577;SDS011;75151;49.086;33.418;2024-03-02T08:05:41;27.52;;;10.07;;
74577;SDS011;75151;49.086;33.418;2024-03-02T08:08:10;31.63;;;11.35;;
74577;SDS011;75151;49.086;33.418;2024-03-02T08:10:38;37.55;;;10.73;;
74577;SDS011;75151;49.086;33.418;2024-03-02T08:13:05;22.50;;;8.80;;
74577;SDS011;75151;49.086;33.418;2024-03-02T08:15:32;30.98;;;9.15;;
74577;SDS011;75151;49.086;33.418;2024-03-02T08:17:58;28.48;;;8.63;;
74577;SDS011;75151;49.086;33.418;2024-03-02T08:20:26;33.42;;;10.15;;
74577;SDS011;75151;49.086;33.418;2024-03-02T08:22:53;23.48;;;9.32;;
74577;SDS011;75151;49.086;33.418;2024-03-02T08:25:21;45.85;;;17.00;;
74577;SDS011;75151;49.086;33.418;2024-03-02T08:27:48;26.67;;;9.50;;
74577;SDS011;75151;49.086;33.418;2024-03-02T08:30:15;25.70;;;7.95;;
74577;SDS011;75151;49.086;33.418;2024-03-02T08:32:42;25.77;;;7.40;;
74577;SDS011;75151;49.086;33.418;2024-03-02T08:35:09;25.35;;;7.60;;
74577;SDS011;75151;49.086;33.418;2024-03-02T08:37:37;21.38;;;7.85;;
74577;SDS011;75151;49.086;33.418;2024-03-02T08:40:06;20.15;;;8.23;;
74577;SDS011;75151;49.086;33.418;2024-03-02T08:42:34;15.63;;;6.25;;
74577;SDS011;75151;49.086;33.418;2024-03-02T08:45:01;24.80;;;7.65;;
74577;SDS011;75151;49.086;33.418;2024-03-02T08:47:28;19.70;;;6.60;;
74577;SDS011;75151;49.086;33.418;2024-03-02T08:49:55;26.58;;;7.03;;
74577;SDS011;75151;49.086;33.418;2024-03-02T08:52:25;14.35;;;5.43;;
74577;SDS011;75151;49.086;33.418;2024-03-02T08:54:52;23.83;;;7.07;;
74577;SDS011;75151;49.086;33.418;2024-03-02T08:57:19;20.45;;;6.57;;
74577;SDS011;75151;49.086;33.418;2024-03-02T08:59:46;13.75;;;5.95;;
74577;SDS011;75151;49.086;33.418;2024-03-02T09:02:13;23.85;;;6.55;;
74577;SDS011;75151;49.086;33.418;2024-03-02T09:04:40;19.80;;;6.72;;
74577;SDS011;75151;49.086;33.418;2024-03-02T09:07:07;14.50;;;6.18;;
74577;SDS011;75151;49.086;33.418;2024-03-02T09:09:34;21.58;;;6.75;;
74577;SDS011;75151;49.086;33.418;2024-03-02T09:12:01;14.27;;;5.25;;
74577;SDS011;75151;49.086;33.418;2024-03-02T09:14:28;21.35;;;6.53;;
74577;SDS011;75151;49.086;33.418;2024-03-02T09:16:55;16.73;;;6.07;;
74577;SDS011;75151;49.086;33.418;2024-03-02T09:19:22;15.75;;;5.53;;
74577;SDS011;75151;49.086;33.418;2024-03-02T09:21:49;17.13;;;5.45;;
74577;SDS011;75151;49.086;33.418;2024-03-02T09:24:16;16.60;;;5.68;;
74577;SDS011;75151;49.086;33.418;2024-03-02T09:26:43;22.83;;;5.65;;
74577;SDS011;75151;49.086;33.418;2024-03-02T09:29:10;16.33;;;6.30;;
74577;SDS011;75151;49.086;33.418;2024-03-02T09:31:40;14.15;;;4.90;;
74577;SDS011;75151;49.086;33.418;2024-03-02T09:34:08;17.20;;;4.63;;
74577;SDS011;75151;49.086;33.418;2024-03-02T09:36:35;19.08;;;5.15;;
74577;SDS011;75151;49.086;33.418;2024-03-02T09:39:02;16.35;;;5.28;;
74577;SDS011;75151;49.086;33.418;2024-03-02T09:43:58;18.73;;;5.43;;
74577;SDS011;75151;49.086;33.418;2024-03-02T09:46:26;26.83;;;5.32;;
74577;SDS011;75151;49.086;33.418;2024-03-02T09:48:53;23.27;;;5.88;;
74577;SDS011;75151;49.086;33.418;2024-03-02T09:51:20;21.02;;;5.35;;
74577;SDS011;75151;49.086;33.418;2024-03-02T09:53:47;21.23;;;5.32;;
74577;SDS011;75151;49.086;33.418;2024-03-02T09:56:15;25.20;;;4.55;;
74577;SDS011;75151;49.086;33.418;2024-03-02T09:58:42;16.33;;;5.18;;
74577;SDS011;75151;49.086;33.418;2024-03-02T10:01:10;14.73;;;4.15;;
74577;SDS011;75151;49.086;33.418;2024-03-02T10:03:37;15.35;;;4.03;;
74577;SDS011;75151;49.086;33.418;2024-03-02T10:06:24;17.95;;;5.05;;
74577;SDS011;75151;49.086;33.418;2024-03-02T10:08:52;17.30;;;4.50;;
74577;SDS011;75151;49.086;33.418;2024-03-02T10:11:29;20.73;;;4.88;;
74577;SDS011;75151;49.086;33.418;2024-03-02T10:14:19;15.40;;;5.60;;
74577;SDS011;75151;49.086;33.418;2024-03-02T10:16:44;11.27;;;4.75;;
74577;SDS011;75151;49.086;33.418;2024-03-02T10:19:15;13.50;;;3.90;;
74577;SDS011;75151;49.086;33.418;2024-03-02T10:21:49;14.85;;;4.05;;
74577;SDS011;75151;49.086;33.418;2024-03-02T10:24:18;13.75;;;4.70;;
74577;SDS011;75151;49.086;33.418;2024-03-02T10:26:46;20.70;;;5.30;;
74577;SDS011;75151;49.086;33.418;2024-03-02T10:29:13;11.95;;;4.50;;
74577;SDS011;75151;49.086;33.418;2024-03-02T10:31:40;21.23;;;4.53;;
74577;SDS011;75151;49.086;33.418;2024-03-02T10:34:10;16.40;;;4.30;;
74577;SDS011;75151;49.086;33.418;2024-03-02T10:36:38;20.85;;;4.32;;
74577;SDS011;75151;49.086;33.418;2024-03-02T10:39:08;17.10;;;4.32;;
74577;SDS011;75151;49.086;33.418;2024-03-02T10:41:36;12.88;;;4.88;;
74577;SDS011;75151;49.086;33.418;2024-03-02T10:44:05;18.10;;;4.18;;
74577;SDS011;75151;49.086;33.418;2024-03-02T10:46:37;15.55;;;4.15;;
74577;SDS011;75151;49.086;33.418;2024-03-02T10:49:05;19.77;;;4.90;;
74577;SDS011;75151;49.086;33.418;2024-03-02T10:51:34;9.95;;;3.50;;
74577;SDS011;75151;49.086;33.418;2024-03-02T10:54:03;18.40;;;4.65;;
74577;SDS011;75151;49.086;33.418;2024-03-02T11:01:33;15.55;;;4.72;;
74577;SDS011;75151;49.086;33.418;2024-03-02T11:04:01;20.23;;;4.85;;
74577;SDS011;75151;49.086;33.418;2024-03-02T11:06:30;24.92;;;4.15;;
74577;SDS011;75151;49.086;33.418;2024-03-02T11:09:00;24.08;;;4.35;;
74577;SDS011;75151;49.086;33.418;2024-03-02T11:11:32;19.42;;;3.60;;
74577;SDS011;75151;49.086;33.418;2024-03-02T11:14:04;18.60;;;4.63;;
74577;SDS011;75151;49.086;33.418;2024-03-02T11:16:35;22.92;;;4.40;;
74577;SDS011;75151;49.086;33.418;2024-03-02T11:19:07;17.02;;;4.03;;
74577;SDS011;75151;49.086;33.418;2024-03-02T11:21:41;20.55;;;4.60;;
74577;SDS011;75151;49.086;33.418;2024-03-02T11:26:45;19.52;;;4.05;;
74577;SDS011;75151;49.086;33.418;2024-03-02T11:29:58;19.88;;;4.00;;
74577;SDS011;75151;49.086;33.418;2024-03-02T11:32:02;29.50;;;5.47;;
74577;SDS011;75151;49.086;33.418;2024-03-02T11:34:31;19.92;;;4.93;;
74577;SDS011;75151;49.086;33.418;2024-03-02T11:37:02;20.55;;;4.47;;
74577;SDS011;75151;49.086;33.418;2024-03-02T11:39:29;24.83;;;5.95;;
74577;SDS011;75151;49.086;33.418;2024-03-02T11:41:57;21.50;;;5.63;;
74577;SDS011;75151;49.086;33.418;2024-03-02T11:47:02;23.10;;;5.10;;
74577;SDS011;75151;49.086;33.418;2024-03-02T11:52:09;25.33;;;4.65;;
74577;SDS011;75151;49.086;33.418;2024-03-02T11:54:38;17.60;;;4.50;;
74577;SDS011;75151;49.086;33.418;2024-03-02T11:59:35;34.15;;;5.35;;
74577;SDS011;75151;49.086;33.418;2024-03-02T12:02:02;19.42;;;4.65;;
74577;SDS011;75151;49.086;33.418;2024-03-02T12:04:29;20.30;;;4.63;;
74577;SDS011;75151;49.086;33.418;2024-03-02T12:07:00;21.70;;;4.32;;
74577;SDS011;75151;49.086;33.418;2024-03-02T12:09:28;15.98;;;4.60;;
74577;SDS011;75151;49.086;33.418;2024-03-02T12:12:05;19.33;;;4.22;;
74577;SDS011;75151;49.086;33.418;2024-03-02T12:14:33;22.27;;;4.10;;
74577;SDS011;75151;49.086;33.418;2024-03-02T12:17:04;21.00;;;6.35;;
74577;SDS011;75151;49.086;33.418;2024-03-02T12:21:59;21.23;;;4.03;;
74577;SDS011;75151;49.086;33.418;2024-03-02T12:24:28;24.38;;;5.30;;
74577;SDS011;75151;49.086;33.418;2024-03-02T12:29:23;19.48;;;4.43;;
74577;SDS011;75151;49.086;33.418;2024-03-02T12:31:53;35.10;;;5.00;;
74577;SDS011;75151;49.086;33.418;2024-03-02T12:34:20;23.30;;;4.55;;
74577;SDS011;75151;49.086;33.418;2024-03-02T12:36:48;22.15;;;4.80;;
74577;SDS011;75151;49.086;33.418;2024-03-02T12:39:19;19.95;;;4.60;;
74577;SDS011;75151;49.086;33.418;2024-03-02T12:41:47;16.73;;;5.22;;
74577;SDS011;75151;49.086;33.418;2024-03-02T12:44:17;25.70;;;5.97;;
74577;SDS011;75151;49.086;33.418;2024-03-02T12:46:45;24.95;;;5.35;;
74577;SDS011;75151;49.086;33.418;2024-03-02T12:49:13;45.47;;;6.68;;
74577;SDS011;75151;49.086;33.418;2024-03-02T12:51:44;24.70;;;4.72;;
74577;SDS011;75151;49.086;33.418;2024-03-02T12:54:13;27.83;;;4.47;;
74577;SDS011;75151;49.086;33.418;2024-03-02T12:56:41;16.10;;;3.88;;
74577;SDS011;75151;49.086;33.418;2024-03-02T12:59:21;21.00;;;3.63;;
74577;SDS011;75151;49.086;33.418;2024-03-02T13:01:53;29.02;;;5.65;;
74577;SDS011;75151;49.086;33.418;2024-03-02T13:04:27;39.65;;;5.47;;
74577;SDS011;75151;49.086;33.418;2024-03-02T13:06:55;25.25;;;5.22;;
74577;SDS011;75151;49.086;33.418;2024-03-02T13:09:24;25.90;;;4.65;;
74577;SDS011;75151;49.086;33.418;2024-03-02T13:11:52;22.55;;;4.35;;
74577;SDS011;75151;49.086;33.418;2024-03-02T13:14:21;22.67;;;4.53;;
74577;SDS011;75151;49.086;33.418;2024-03-02T13:16:48;33.45;;;5.50;;
74577;SDS011;75151;49.086;33.418;2024-03-02T13:19:18;29.83;;;5.28;;
74577;SDS011;75151;49.086;33.418;2024-03-02T13:21:48;26.67;;;5.47;;
74577;SDS011;75151;49.086;33.418;2024-03-02T13:24:17;27.52;;;5.32;;
74577;SDS011;75151;49.086;33.418;2024-03-02T13:26:44;21.30;;;5.03;;
74577;SDS011;75151;49.086;33.418;2024-03-02T13:29:10;15.35;;;4.15;;
74577;SDS011;75151;49.086;33.418;2024-03-02T13:31:38;15.75;;;4.20;;
74577;SDS011;75151;49.086;33.418;2024-03-02T13:34:04;22.63;;;4.80;;
74577;SDS011;75151;49.086;33.418;2024-03-02T13:36:32;22.38;;;4.57;;
74577;SDS011;75151;49.086;33.418;2024-03-02T13:38:58;22.55;;;4.43;;
74577;SDS011;75151;49.086;33.418;2024-03-02T13:41:25;23.38;;;4.70;;
74577;SDS011;75151;49.086;33.418;2024-03-02T13:43:52;17.25;;;4.25;;
74577;SDS011;75151;49.086;33.418;2024-03-02T13:46:20;17.08;;;5.90;;
74577;SDS011;75151;49.086;33.418;2024-03-02T13:48:47;20.27;;;4.30;;
74577;SDS011;75151;49.086;33.418;2024-03-02T13:51:14;19.50;;;4.90;;
74577;SDS011;75151;49.086;33.418;2024-03-02T13:53:41;28.95;;;4.70;;
74577;SDS011;75151;49.086;33.418;2024-03-02T13:56:07;23.83;;;3.92;;
74577;SDS011;75151;49.086;33.418;2024-03-02T13:58:34;16.58;;;4.32;;
74577;SDS011;75151;49.086;33.418;2024-03-02T14:01:01;22.13;;;5.07;;
74577;SDS011;75151;49.086;33.418;2024-03-02T14:03:31;17.23;;;4.93;;
74577;SDS011;75151;49.086;33.418;2024-03-02T14:05:58;14.57;;;4.05;;
74577;SDS011;75151;49.086;33.418;2024-03-02T14:08:25;23.60;;;6.15;;
74577;SDS011;75151;49.086;33.418;2024-03-02T14:10:52;22.70;;;5.32;;
74577;SDS011;75151;49.086;33.418;2024-03-02T14:13:19;19.30;;;6.05;;
74577;SDS011;75151;49.086;33.418;2024-03-02T14:15:45;21.33;;;5.30;;
74577;SDS011;75151;49.086;33.418;2024-03-02T14:18:12;24.08;;;5.10;;
74577;SDS011;75151;49.086;33.418;2024-03-02T14:20:39;24.50;;;4.45;;
74577;SDS011;75151;49.086;33.418;2024-03-02T14:23:08;13.73;;;4.15;;
74577;SDS011;75151;49.086;33.418;2024-03-02T14:25:36;24.35;;;9.50;;
74577;SDS011;75151;49.086;33.418;2024-03-02T14:28:03;24.45;;;5.97;;
74577;SDS011;75151;49.086;33.418;2024-03-02T14:30:50;25.08;;;5.55;;
74577;SDS011;75151;49.086;33.418;2024-03-02T14:33:17;26.25;;;4.88;;
74577;SDS011;75151;49.086;33.418;2024-03-02T14:35:44;20.08;;;5.03;;
74577;SDS011;75151;49.086;33.418;2024-03-02T14:38:12;15.40;;;5.25;;
74577;SDS011;75151;49.086;33.418;2024-03-02T14:40:39;16.30;;;5.93;;
74577;SDS011;75151;49.086;33.418;2024-03-02T14:43:05;23.80;;;5.85;;
74577;SDS011;75151;49.086;33.418;2024-03-02T14:45:33;26.60;;;6.03;;
74577;SDS011;75151;49.086;33.418;2024-03-02T14:47:59;25.75;;;6.15;;
74577;SDS011;75151;49.086;33.418;2024-03-02T14:50:27;32.83;;;6.68;;